WZZ5463 EGGW-EDLW
Flight info
| Callsign | WZZ5463 |
|---|---|
| Flight time | N/A |
| Altitude | 33000 |
| Route | MATCH2C MATCH Q295 BRAIN M197 REDFA L620 TACHA DCT PAM L620 SONEB Z841 DOMEG DOMEG2A |
| Aircraft | A21N/M-SDE2E3FGHIRWXY/LB1 |
Departure
| Time | 2026-04-28 14:58 |
|---|---|
| Airport | London Luton Airport (EGGW) |
Arrival
| Time | N/A |
|---|---|
| Airport | Dortmund Airport (EDLW) |
| Time | Latitude | Longitude | Altitude | Speed | Heading |
|---|---|---|---|---|---|
| 2026-04-28 14:14 | 51.87958 | -0.37324 | 514 ft | 0 kts | 162° |
| 2026-04-28 14:49 | 51.87963 | -0.37327 | 514 ft | 4 kts | 162° |
| 2026-04-28 14:49 | 51.87988 | -0.37343 | 514 ft | 4 kts | 144° |
| 2026-04-28 14:50 | 51.88003 | -0.37373 | 514 ft | 4 kts | 103° |
| 2026-04-28 14:50 | 51.88003 | -0.37402 | 514 ft | 0 kts | 72° |
| 2026-04-28 14:53 | 51.88006 | -0.37388 | 514 ft | 4 kts | 72° |
| 2026-04-28 14:53 | 51.88019 | -0.37326 | 514 ft | 8 kts | 72° |
| 2026-04-28 14:53 | 51.88040 | -0.37220 | 514 ft | 11 kts | 72° |
| 2026-04-28 14:54 | 51.87996 | -0.37123 | 514 ft | 13 kts | 158° |
| 2026-04-28 14:54 | 51.87902 | -0.37071 | 514 ft | 15 kts | 161° |
| 2026-04-28 14:54 | 51.87791 | -0.37011 | 521 ft | 18 kts | 162° |
| 2026-04-28 14:54 | 51.87683 | -0.36955 | 529 ft | 9 kts | 162° |
| 2026-04-28 14:55 | 51.87624 | -0.37010 | 527 ft | 12 kts | 244° |
| 2026-04-28 14:55 | 51.87608 | -0.37099 | 527 ft | 13 kts | 255° |
| 2026-04-28 14:55 | 51.87582 | -0.37252 | 527 ft | 15 kts | 255° |
| 2026-04-28 14:55 | 51.87581 | -0.37416 | 528 ft | 11 kts | 247° |
| 2026-04-28 14:56 | 51.87518 | -0.37497 | 527 ft | 13 kts | 229° |
| 2026-04-28 14:56 | 51.87486 | -0.37643 | 528 ft | 15 kts | 254° |
| 2026-04-28 14:56 | 51.87455 | -0.37827 | 528 ft | 18 kts | 254° |
| 2026-04-28 14:56 | 51.87421 | -0.37995 | 529 ft | 13 kts | 236° |
| 2026-04-28 14:57 | 51.87343 | -0.38083 | 528 ft | 15 kts | 201° |
| 2026-04-28 14:57 | 51.87255 | -0.38060 | 529 ft | 17 kts | 97° |
| 2026-04-28 14:57 | 51.87300 | -0.37776 | 529 ft | 53 kts | 74° |
| 2026-04-28 14:57 | 51.87476 | -0.36775 | 530 ft | 128 kts | 72° |
| 2026-04-28 14:58 | 51.87717 | -0.35340 | 1089 ft | 128 kts | 70° |
| 2026-04-28 14:58 | 51.87956 | -0.33952 | 1788 ft | 134 kts | 69° |
| 2026-04-28 14:58 | 51.88232 | -0.32393 | 2183 ft | 154 kts | 70° |
| 2026-04-28 14:58 | 51.88539 | -0.30617 | 2688 ft | 174 kts | 71° |
| 2026-04-28 14:59 | 51.88880 | -0.28634 | 3247 ft | 190 kts | 71° |
| 2026-04-28 14:59 | 51.89250 | -0.26489 | 3788 ft | 208 kts | 72° |
| 2026-04-28 14:59 | 51.89646 | -0.24129 | 4394 ft | 227 kts | 76° |
| 2026-04-28 14:59 | 51.89718 | -0.21521 | 4842 ft | 237 kts | 96° |
| 2026-04-28 15:00 | 51.89150 | -0.19000 | 4986 ft | 242 kts | 117° |
| 2026-04-28 15:00 | 51.88002 | -0.17011 | 5013 ft | 253 kts | 139° |
| 2026-04-28 15:00 | 51.86357 | -0.15848 | 5015 ft | 266 kts | 162° |
| 2026-04-28 15:00 | 51.84474 | -0.15867 | 5011 ft | 277 kts | 182° |
| 2026-04-28 15:01 | 51.82583 | -0.16084 | 4999 ft | 267 kts | 163° |
| 2026-04-28 15:01 | 51.80868 | -0.15123 | 5158 ft | 258 kts | 148° |
| 2026-04-28 15:01 | 51.79245 | -0.13900 | 5840 ft | 259 kts | 148° |
| 2026-04-28 15:01 | 51.77609 | -0.12642 | 6799 ft | 260 kts | 146° |
| 2026-04-28 15:02 | 51.76202 | -0.10891 | 7723 ft | 254 kts | 126° |
| 2026-04-28 15:02 | 51.75341 | -0.08446 | 8607 ft | 251 kts | 104° |
| 2026-04-28 15:02 | 51.75218 | -0.05635 | 9478 ft | 255 kts | 85° |
| 2026-04-28 15:02 | 51.75485 | -0.02767 | 10345 ft | 260 kts | 82° |
| 2026-04-28 15:03 | 51.75785 | 0.00178 | 10809 ft | 276 kts | 82° |
| 2026-04-28 15:03 | 51.76086 | 0.03356 | 11128 ft | 297 kts | 83° |
| 2026-04-28 15:03 | 51.76388 | 0.06736 | 11404 ft | 319 kts | 83° |
| 2026-04-28 15:03 | 51.76705 | 0.10441 | 11687 ft | 339 kts | 83° |
| 2026-04-28 15:04 | 51.77025 | 0.14262 | 12040 ft | 354 kts | 83° |
| 2026-04-28 15:04 | 51.77354 | 0.18237 | 12643 ft | 360 kts | 83° |
| 2026-04-28 15:04 | 51.77686 | 0.22267 | 13315 ft | 364 kts | 83° |
| 2026-04-28 15:04 | 51.78020 | 0.26332 | 13975 ft | 368 kts | 83° |
| 2026-04-28 15:05 | 51.78355 | 0.30450 | 14553 ft | 371 kts | 83° |
| 2026-04-28 15:05 | 51.78691 | 0.34596 | 15180 ft | 373 kts | 83° |
| 2026-04-28 15:05 | 51.79024 | 0.38760 | 15850 ft | 374 kts | 83° |
| 2026-04-28 15:05 | 51.79358 | 0.42946 | 16541 ft | 377 kts | 83° |
| 2026-04-28 15:06 | 51.79692 | 0.47153 | 17253 ft | 379 kts | 83° |
| 2026-04-28 15:06 | 51.80028 | 0.51401 | 17906 ft | 382 kts | 83° |
| 2026-04-28 15:06 | 51.80366 | 0.55695 | 18540 ft | 386 kts | 83° |
| 2026-04-28 15:06 | 51.80704 | 0.60009 | 19118 ft | 389 kts | 83° |
| 2026-04-28 15:07 | 51.81055 | 0.64342 | 19686 ft | 390 kts | 82° |
| 2026-04-28 15:07 | 51.81627 | 0.68643 | 20274 ft | 392 kts | 77° |
| 2026-04-28 15:07 | 51.82289 | 0.72925 | 20844 ft | 394 kts | 77° |
| 2026-04-28 15:07 | 51.82958 | 0.77216 | 21395 ft | 395 kts | 77° |
| 2026-04-28 15:08 | 51.83643 | 0.81546 | 21932 ft | 397 kts | 76° |
| 2026-04-28 15:08 | 51.84416 | 0.85853 | 22473 ft | 400 kts | 75° |
| 2026-04-28 15:08 | 51.85195 | 0.90116 | 22992 ft | 402 kts | 75° |